Everett, WA (98206)

4:10 AM PDT on May 23, 2015 (GMT -0700)
Kains Station | | Change Station
CLOSE
Current Station
Personal Weather Station
Location: Everett, WA
Elevation: 282 ft
Nearby Weather Stations

Elev 282 ft 47.93 °N, 122.24 °W | Updated 3 seconds ago

Overcast
Overcast
53.4 °F
Feels Like 53.4 °F
N
1.0
Wind Variable Wind from SSW
Gusts 2.0 mph

Today
High -- | Low -- °F
--% Chance of Precip.
Yesterday
High -- | Low -- °F
Precip. -- in
5:21 AM 8:50 PM
Waxing Crescent, 29% visible
Pressure 30.11 in
Visibility 10.0 miles
Clouds Overcast 1200 ft
Dew Point 50 °F
Humidity 89%
Rainfall 0.00 in
Snow Depth Not available.
UV 0 out of 12
Pollen 6.90 out of 12
Air Quality Not available.
Flu Activity Sporadic
METAR KPAE 231053Z AUTO 19006KT 10SM OVC012 12/09 A3011 RMK AO2 SLP196 T01170089

More Conditions Fewer Conditions

Pressure 30.11 in
Visibility 10.0 miles
Clouds Overcast 1200 ft
Dew Point 50 °F
Humidity 89%
Rainfall 0.00 in
Snow Depth Not available.
UV 0 out of 12
Pollen 6.90 out of 12
Air Quality Not available.
Flu Activity Sporadic
METAR KPAE 231053Z AUTO 19006KT 10SM OVC012 12/09 A3011 RMK AO2 SLP196 T01170089

More Conditions Fewer Conditions

10-Day Weather Forecast

Almanac

Astronomy

May. 23, 2015 Rise Set
Actual Time
Civil Twilight
Nautical Twilight
Astronomical Twilight
Moon
Length of Visible Light
Length of Day
Tomorrow will be .
, % of the Moon is Illuminated

Today's Extremes

State Highs State Lows

Community

WunderPhotos

Upload Photos

1,823,409 photos uploaded!

WunderBlogs® & News

Nearby

Air Quality

  Air Quality AQ Index Pollutant
Not available.

Snow Depth

Station Depth Elevation

Earthquake Activity

City Distance Mag. Time & Date
Minimum magnitude displayed is 2.5.

Coastal Water Temperatures

Place Temperature

Stations

Nearby Weather Stations

Station Location Temp. Windchill Dew Point Humidity Wind Precip. Elev Updated Type